Terminal Aerodrome Forecast
Issued by NWS

Home | Current Version | Previous Version | Text Only | Print | Product List | Glossary On
Versions: 1 2 3 4 5 6 7 8 9 10 11 12 13 14
000
FTUS44 KLZK 311700
TAFBPK
TAF
KBPK 311720Z 3118/0118 33012G22KT P6SM BKN040
      TEMPO 3118/3121 SCT040
     FM312100 34012G20KT P6SM SKC
     FM010000 35006KT P6SM SKC=

USA.gov is the U.S. government's official web portal to all federal, state and local government web resources and services.